aviador You're here:

KFLD Decoded Metar

FOND DU LAC in WI, USA
Report Time2018-04-24 01:53:00
UTC Time2018-04-24 02:28:11
Flight Rules vfr VFR
WindCalm
Visibility9999 m
Phenomena:N/A
Clouds:N/A
Expected CloudBase > 3,200 ft AGL from Temp-Dew spread
CeilingNone
Temp09°C (ISA -4)
Dew Point01°C (58% RH)
AAT7.2°C
QNH1020 hPa
Density Alt112 ft
Elevation787 ft
Report Wrong Elevation
Raw Report
KFLD 240153Z AUTO 00000KT 10SM CLR 09/01 A3013 RMK AO2 SLP208
T00940011=

Extra information for KFLD:More info

Metar Taf Metar & Taf Last 4 Metars F.Rules Stats Wind Profile Meteogram Temp Stats Airport Information Weather charts Add Link Nearby VenuesMetar ALERT Operation Metar Decoded Social comments

AIRNAV info for KFLD